Time;durP1;ratioP1;P1;durP2;ratioP2;P2;SDS_P1;SDS_P2;PMS_P1;PMS_P2;Temp;Humidity;BMP_temperature;BMP_pressure;BME280_temperature;BME280_humidity;BME280_pressure;Samples;Min_cycle;Max_cycle;Signal;HPM_P1;HPM_P2
2022/06/29 00:01:24;;;;;;;;;;;;;;;;;;5086832;28;20069;-55
2022/06/29 00:03:51;;;;;;;;;;;;;;;;;;5077506;28;20047;-52
2022/06/29 00:06:17;;;;;;;;;;;;;;;;;;5066537;28;19917;-54
2022/06/29 00:08:43;;;;;;;;;;;;;;;;;;5066261;28;19908;-51
2022/06/29 00:11:10;;;;;;;;;;;;;;;;;;5067391;28;19908;-55
2022/06/29 00:13:36;;;;;;;;;;;;;;;;;;5066706;28;19909;-54
2022/06/29 00:16:02;;;;;;;;;;;;;;;;;;5067094;28;19965;-50
2022/06/29 00:18:28;;;;;;;;;;;;;;;;;;5085455;28;19920;-52
2022/06/29 00:20:53;;;;;;;;;;;;;;;;;;5066697;28;19912;-49
2022/06/29 00:23:20;;;;;;;;;;;;;;;;;;5066812;28;19938;-50
2022/06/29 00:25:46;;;;;;;;;;;;;;;;;;5066499;28;19911;-51
2022/06/29 00:28:12;;;;;;;;;;;;;;;;;;5066961;28;19970;-51
2022/06/29 00:30:38;;;;;;;;;;;;;;;;;;5067446;28;19905;-49
2022/06/29 00:33:04;;;;;;;;;;;;;;;;;;5066211;28;19909;-50
2022/06/29 00:35:30;;;;;;;;;;;;;;;;;;5066644;28;19920;-50
2022/06/29 00:37:56;;;;;;;;;;;;;;;;;;5064978;28;19948;-49
2022/06/29 00:40:21;;;;;;;;;;;;;;;;;;5067000;28;20402;-49
2022/06/29 00:42:47;;;;;;;;;;;;;;;;;;5066134;28;19909;-50
2022/06/29 00:45:13;;;;;;;;;;;;;;;;;;5065182;28;20016;-50
2022/06/29 00:47:39;;;;;;;;;;;;;;;;;;5066765;28;20012;-49
2022/06/29 00:50:06;;;;;;;;;;;;;;;;;;5066582;28;20363;-50
2022/06/29 00:52:32;;;;;;;;;;;;;;;;;;5066066;28;20379;-50
2022/06/29 00:54:59;;;;;;;;;;;;;;;;;;5066192;28;19908;-50
2022/06/29 00:57:25;;;;;;;;;;;;;;;;;;5066104;28;19958;-49
2022/06/29 00:59:51;;;;;;;;;;;;;;;;;;5065872;28;19952;-50
2022/06/29 01:02:17;;;;;;;;;;;;;;;;;;5066197;28;19916;-50
2022/06/29 01:04:43;;;;;;;;;;;;;;;;;;5065689;28;19912;-50
2022/06/29 01:07:09;;;;;;;;;;;;;;;;;;5066573;28;20303;-50
2022/06/29 01:09:35;;;;;;;;;;;;;;;;;;5065796;28;19915;-49
2022/06/29 01:12:02;;;;;;;;;;;;;;;;;;5066117;28;19912;-49
2022/06/29 01:14:29;;;;;;;;;;;;;;;;;;5065857;28;19912;-49
2022/06/29 01:16:55;;;;;;;;;;;;;;;;;;5065748;28;19908;-52
2022/06/29 01:19:21;;;;;;;;;;;;;;;;;;5065522;28;19912;-49
2022/06/29 01:21:47;;;;;;;;;;;;;;;;;;5065489;28;19970;-51
2022/06/29 01:24:13;;;;;;;;;;;;;;;;;;5065659;28;19932;-50
2022/06/29 01:26:39;;;;;;;;;;;;;;;;;;5066130;28;19909;-50
2022/06/29 01:29:04;;;;;;;;;;;;;;;;;;5065653;28;19904;-49
2022/06/29 01:31:31;;;;;;;;;;;;;;;;;;5065461;28;19915;-50
2022/06/29 01:33:57;;;;;;;;;;;;;;;;;;5064986;28;19931;-49
2022/06/29 01:36:23;;;;;;;;;;;;;;;;;;5065374;28;19917;-49
2022/06/29 01:38:50;;;;;;;;;;;;;;;;;;5063629;28;19912;-49
2022/06/29 01:41:17;;;;;;;;;;;;;;;;;;5065408;28;19919;-49
2022/06/29 01:43:43;;;;;;;;;;;;;;;;;;5064960;28;20306;-51
2022/06/29 01:46:09;;;;;;;;;;;;;;;;;;5065642;28;19908;-49
2022/06/29 01:48:35;;;;;;;;;;;;;;;;;;5065053;28;19924;-49
2022/06/29 01:51:02;;;;;;;;;;;;;;;;;;5063838;28;19959;-50
2022/06/29 01:53:27;;;;;;;;;;;;;;;;;;5064869;28;19913;-50
2022/06/29 01:55:53;;;;;;;;;;;;;;;;;;5065153;28;20011;-50
2022/06/29 01:58:19;;;;;;;;;;;;;;;;;;5065516;28;19948;-49
2022/06/29 02:00:45;;;;;;;;;;;;;;;;;;5064925;28;20428;-50
2022/06/29 02:03:11;;;;;;;;;;;;;;;;;;5064725;28;19912;-49
2022/06/29 02:05:38;;;;;;;;;;;;;;;;;;5065561;28;20303;-49
2022/06/29 02:08:04;;;;;;;;;;;;;;;;;;5065238;28;19936;-49
2022/06/29 02:10:31;;;;;;;;;;;;;;;;;;5064982;28;20449;-49
2022/06/29 02:12:57;;;;;;;;;;;;;;;;;;5064963;28;19982;-50
2022/06/29 02:15:26;;;;;;;;;;;;;;;;;;5065609;28;20177;-53
2022/06/29 02:17:52;;;;;;;;;;;;;;;;;;5064818;28;19959;-53
2022/06/29 02:20:17;;;;;;;;;;;;;;;;;;5064942;28;20389;-50
2022/06/29 02:22:43;;;;;;;;;;;;;;;;;;5064687;28;19908;-52
2022/06/29 02:25:10;;;;;;;;;;;;;;;;;;5065601;28;19908;-52
2022/06/29 02:27:36;;;;;;;;;;;;;;;;;;5065395;28;19904;-52
2022/06/29 02:30:02;;;;;;;;;;;;;;;;;;5064929;28;19919;-50
2022/06/29 02:35:13;;;;;;;;;;;;;;;;;;5064820;28;19997;-52
2022/06/29 02:37:39;;;;;;;;;;;;;;;;;;5065288;28;19905;-51
2022/06/29 02:40:05;;;;;;;;;;;;;;;;;;5064994;28;19919;-49
2022/06/29 02:42:31;;;;;;;;;;;;;;;;;;5064369;28;19919;-49
2022/06/29 02:44:57;;;;;;;;;;;;;;;;;;5064860;28;19919;-49
2022/06/29 02:47:23;;;;;;;;;;;;;;;;;;5064537;28;20391;-51
2022/06/29 02:49:49;;;;;;;;;;;;;;;;;;5064490;28;19915;-49
2022/06/29 02:52:15;;;;;;;;;;;;;;;;;;5064956;28;19909;-49
2022/06/29 02:54:42;;;;;;;;;;;;;;;;;;5065505;28;20001;-50
2022/06/29 02:57:08;;;;;;;;;;;;;;;;;;5067249;28;19920;-50
2022/06/29 02:59:34;;;;;;;;;;;;;;;;;;5067932;28;19916;-50
2022/06/29 03:02:01;;;;;;;;;;;;;;;;;;5068164;28;19909;-51
2022/06/29 03:04:27;;;;;;;;;;;;;;;;;;5067917;28;19913;-53
2022/06/29 03:06:54;;;;;;;;;;;;;;;;;;5068529;28;19912;-50
2022/06/29 03:09:20;;;;;;;;;;;;;;;;;;5068399;28;20393;-49
2022/06/29 03:11:45;;;;;;;;;;;;;;;;;;5068117;28;19908;-49
2022/06/29 03:14:12;;;;;;;;;;;;;;;;;;5068271;28;19909;-50
2022/06/29 03:16:38;;;;;;;;;;;;;;;;;;5068420;28;19912;-52
2022/06/29 03:19:04;;;;;;;;;;;;;;;;;;5068129;28;20037;-49
2022/06/29 03:21:30;;;;;;;;;;;;;;;;;;5067716;28;20383;-49
2022/06/29 03:23:56;;;;;;;;;;;;;;;;;;5067972;28;19908;-49
2022/06/29 03:26:22;;;;;;;;;;;;;;;;;;5067911;28;20200;-49
2022/06/29 03:28:52;;;;;;;;;;;;;;;;;;5067724;28;19999;-50
2022/06/29 03:31:18;;;;;;;;;;;;;;;;;;5068193;28;20006;-50
2022/06/29 03:33:44;;;;;;;;;;;;;;;;;;5067358;28;19995;-50
2022/06/29 03:36:10;;;;;;;;;;;;;;;;;;5068518;28;20371;-50
2022/06/29 03:38:36;;;;;;;;;;;;;;;;;;5067490;28;19989;-51
2022/06/29 03:41:02;;;;;;;;;;;;;;;;;;5067662;28;20298;-49
2022/06/29 03:43:29;;;;;;;;;;;;;;;;;;5067654;28;20490;-50
2022/06/29 03:45:55;;;;;;;;;;;;;;;;;;5067366;28;19966;-49
2022/06/29 03:48:21;;;;;;;;;;;;;;;;;;5067592;28;20345;-49
2022/06/29 03:50:47;;;;;;;;;;;;;;;;;;5067213;28;19924;-49
2022/06/29 03:53:14;;;;;;;;;;;;;;;;;;5067518;28;19912;-50
2022/06/29 03:55:40;;;;;;;;;;;;;;;;;;5067720;28;19966;-47
2022/06/29 03:58:06;;;;;;;;;;;;;;;;;;5067674;28;19966;-49
2022/06/29 04:00:32;;;;;;;;;;;;;;;;;;5067196;28;19938;-47
2022/06/29 04:02:58;;;;;;;;;;;;;;;;;;5066878;28;20282;-48
2022/06/29 04:05:25;;;;;;;;;;;;;;;;;;5067281;28;19913;-47
2022/06/29 04:07:51;;;;;;;;;;;;;;;;;;5066523;28;19916;-51
2022/06/29 04:10:17;;;;;;;;;;;;;;;;;;5067096;28;20287;-49
2022/06/29 04:12:42;;;;;;;;;;;;;;;;;;5066870;28;19912;-50
2022/06/29 04:15:08;;;;;;;;;;;;;;;;;;5067464;28;20175;-51
2022/06/29 04:17:34;;;;;;;;;;;;;;;;;;5067110;28;19912;-50
2022/06/29 04:20:01;;;;;;;;;;;;;;;;;;5066925;28;19935;-51
2022/06/29 04:22:27;;;;;;;;;;;;;;;;;;5066690;28;19912;-49
2022/06/29 04:24:53;;;;;;;;;;;;;;;;;;5066588;28;20307;-49
2022/06/29 04:27:19;;;;;;;;;;;;;;;;;;5065549;28;20350;-47
2022/06/29 04:29:45;;;;;;;;;;;;;;;;;;5066703;28;19908;-47
2022/06/29 04:32:11;;;;;;;;;;;;;;;;;;5066663;28;20413;-48
2022/06/29 04:34:38;;;;;;;;;;;;;;;;;;5067067;28;19912;-50
2022/06/29 04:37:04;;;;;;;;;;;;;;;;;;5066700;28;19919;-50
2022/06/29 04:39:31;;;;;;;;;;;;;;;;;;5064868;28;19912;-50
2022/06/29 04:41:58;;;;;;;;;;;;;;;;;;5066385;28;19958;-49
2022/06/29 04:44:25;;;;;;;;;;;;;;;;;;5066414;28;19947;-50
2022/06/29 04:46:51;;;;;;;;;;;;;;;;;;5066195;28;19962;-51
2022/06/29 04:49:18;;;;;;;;;;;;;;;;;;5066562;28;19912;-49
2022/06/29 04:51:44;;;;;;;;;;;;;;;;;;5066128;28;19920;-51
2022/06/29 04:54:11;;;;;;;;;;;;;;;;;;5066795;28;19904;-50
2022/06/29 04:56:37;;;;;;;;;;;;;;;;;;5066743;28;19920;-50
2022/06/29 04:59:04;;;;;;;;;;;;;;;;;;5065949;28;19924;-47
2022/06/29 05:01:30;;;;;;;;;;;;;;;;;;5065890;28;19918;-50
2022/06/29 05:03:59;;;;;;;;;;;;;;;;;;5065757;28;19908;-49
2022/06/29 05:06:25;;;;;;;;;;;;;;;;;;5066100;28;19913;-48
2022/06/29 05:08:52;;;;;;;;;;;;;;;;;;5065923;28;20435;-48
2022/06/29 05:11:18;;;;;;;;;;;;;;;;;;5066014;28;20444;-50
2022/06/29 05:13:44;;;;;;;;;;;;;;;;;;5065612;28;19912;-49
2022/06/29 05:16:11;;;;;;;;;;;;;;;;;;5066357;28;19920;-48
2022/06/29 05:18:39;;;;;;;;;;;;;;;;;;5065836;28;19917;-50
2022/06/29 05:21:06;;;;;;;;;;;;;;;;;;5065665;28;19912;-50
2022/06/29 05:23:32;;;;;;;;;;;;;;;;;;5065435;28;19908;-49
2022/06/29 05:25:59;;;;;;;;;;;;;;;;;;5065696;28;19908;-49
2022/06/29 05:28:25;;;;;;;;;;;;;;;;;;5066101;28;19919;-49
2022/06/29 05:30:52;;;;;;;;;;;;;;;;;;5065212;28;19909;-50
2022/06/29 05:33:17;;;;;;;;;;;;;;;;;;5065377;28;19909;-49
2022/06/29 05:35:43;;;;;;;;;;;;;;;;;;5065372;28;19935;-49
2022/06/29 05:38:10;;;;;;;;;;;;;;;;;;5066528;28;19916;-50
2022/06/29 05:40:36;;;;;;;;;;;;;;;;;;5065630;28;19952;-49
2022/06/29 05:43:03;;;;;;;;;;;;;;;;;;5065277;28;20073;-51
2022/06/29 05:45:29;;;;;;;;;;;;;;;;;;5064935;28;19909;-50
2022/06/29 05:47:55;;;;;;;;;;;;;;;;;;5066850;28;19957;-49
2022/06/29 05:50:21;;;;;;;;;;;;;;;;;;5067205;28;20009;-49
2022/06/29 05:52:48;;;;;;;;;;;;;;;;;;5066614;28;20314;-49
2022/06/29 05:55:13;;;;;;;;;;;;;;;;;;5067173;28;20390;-49
2022/06/29 05:57:39;;;;;;;;;;;;;;;;;;5066967;28;19920;-48
2022/06/29 06:00:05;;;;;;;;;;;;;;;;;;5066783;28;19912;-49
2022/06/29 06:02:31;;;;;;;;;;;;;;;;;;5066839;28;19912;-50
2022/06/29 06:04:57;;;;;;;;;;;;;;;;;;5066815;28;20346;-49
2022/06/29 06:07:23;;;;;;;;;;;;;;;;;;5067010;28;20201;-50
2022/06/29 06:09:49;;;;;;;;;;;;;;;;;;5066803;28;19913;-50
2022/06/29 06:12:16;;;;;;;;;;;;;;;;;;5066907;28;20333;-49
2022/06/29 06:14:42;;;;;;;;;;;;;;;;;;5066363;28;20010;-49
2022/06/29 06:17:08;;;;;;;;;;;;;;;;;;5066133;28;19924;-53
2022/06/29 06:19:34;;;;;;;;;;;;;;;;;;5065355;28;19924;-52
2022/06/29 06:22:00;;;;;;;;;;;;;;;;;;5066974;28;20548;-50
2022/06/29 06:24:26;;;;;;;;;;;;;;;;;;5068256;28;19919;-50
2022/06/29 06:26:52;;;;;;;;;;;;;;;;;;5067819;28;19912;-49
2022/06/29 06:29:18;;;;;;;;;;;;;;;;;;5067017;28;19919;-49
2022/06/29 06:31:45;;;;;;;;;;;;;;;;;;5062355;28;20007;-51
2022/06/29 06:34:11;;;;;;;;;;;;;;;;;;5068050;28;19913;-50
2022/06/29 06:36:37;;;;;;;;;;;;;;;;;;5069888;28;19924;-55
2022/06/29 06:39:03;;;;;;;;;;;;;;;;;;5071397;28;19916;-56
2022/06/29 06:41:29;;;;;;;;;;;;;;;;;;5071758;28;19908;-55
2022/06/29 06:43:55;;;;;;;;;;;;;;;;;;5071318;28;19947;-55
2022/06/29 06:46:21;;;;;;;;;;;;;;;;;;5071641;28;20076;-55
2022/06/29 06:48:48;;;;;;;;;;;;;;;;;;5072032;28;19912;-57
2022/06/29 06:51:14;;;;;;;;;;;;;;;;;;5071103;28;19955;-56
2022/06/29 06:53:40;;;;;;;;;;;;;;;;;;5071616;28;20497;-53
2022/06/29 06:56:06;;;;;;;;;;;;;;;;;;5071608;28;19935;-56
2022/06/29 06:58:32;;;;;;;;;;;;;;;;;;5071394;28;19999;-56
2022/06/29 07:00:58;;;;;;;;;;;;;;;;;;5071339;28;20330;-53
2022/06/29 07:03:24;;;;;;;;;;;;;;;;;;5071268;28;19924;-56
2022/06/29 07:05:50;;;;;;;;;;;;;;;;;;5070957;28;19917;-57
2022/06/29 07:08:16;;;;;;;;;;;;;;;;;;5071835;28;19913;-56
2022/06/29 07:10:42;;;;;;;;;;;;;;;;;;5070771;28;20085;-56
2022/06/29 07:13:08;;;;;;;;;;;;;;;;;;5071222;28;19916;-56
2022/06/29 07:15:34;;;;;;;;;;;;;;;;;;5070634;28;19924;-56
2022/06/29 07:18:00;;;;;;;;;;;;;;;;;;5070864;28;20003;-56
2022/06/29 07:20:28;;;;;;;;;;;;;;;;;;5071403;28;19912;-56
2022/06/29 07:22:54;;;;;;;;;;;;;;;;;;5071417;28;20477;-56
2022/06/29 07:25:20;;;;;;;;;;;;;;;;;;5070878;28;19912;-57
2022/06/29 07:27:47;;;;;;;;;;;;;;;;;;5070081;28;19924;-57
2022/06/29 07:30:13;;;;;;;;;;;;;;;;;;5069470;28;20373;-56
2022/06/29 07:32:39;;;;;;;;;;;;;;;;;;5068867;28;19995;-57
2022/06/29 07:35:04;;;;;;;;;;;;;;;;;;5069196;28;19924;-56
2022/06/29 07:37:30;;;;;;;;;;;;;;;;;;5071930;28;19920;-55
2022/06/29 07:39:56;;;;;;;;;;;;;;;;;;5089604;28;20078;-56
2022/06/29 07:42:22;;;;;;;;;;;;;;;;;;5078133;28;19951;-56
2022/06/29 07:44:48;;;;;;;;;;;;;;;;;;5070210;28;19919;-56
2022/06/29 07:47:14;;;;;;;;;;;;;;;;;;5071122;28;19912;-55
2022/06/29 07:49:40;;;;;;;;;;;;;;;;;;5070592;28;19908;-56
2022/06/29 07:52:06;;;;;;;;;;;;;;;;;;5068892;28;19916;-55
2022/06/29 07:54:32;;;;;;;;;;;;;;;;;;5069063;28;19981;-56
2022/06/29 07:56:58;;;;;;;;;;;;;;;;;;5070102;28;19963;-56
2022/06/29 07:59:24;;;;;;;;;;;;;;;;;;5069636;28;19916;-55
2022/06/29 08:01:51;;;;;;;;;;;;;;;;;;5069683;28;19961;-55
2022/06/29 08:04:17;;;;;;;;;;;;;;;;;;5069905;28;19967;-56
2022/06/29 08:06:42;;;;;;;;;;;;;;;;;;5070446;28;20402;-55
2022/06/29 08:09:09;;;;;;;;;;;;;;;;;;5067896;28;19912;-54
2022/06/29 08:11:36;;;;;;;;;;;;;;;;;;5068478;28;20429;-55
2022/06/29 08:14:02;;;;;;;;;;;;;;;;;;5068446;28;19939;-55
2022/06/29 08:16:27;;;;;;;;;;;;;;;;;;5067205;28;20360;-56
2022/06/29 08:18:53;;;;;;;;;;;;;;;;;;5069551;28;19917;-52
2022/06/29 08:21:19;;;;;;;;;;;;;;;;;;5067936;28;19935;-52
2022/06/29 08:23:45;;;;;;;;;;;;;;;;;;5073229;28;19947;-51
2022/06/29 08:26:11;;;;;;;;;;;;;;;;;;5087355;28;19916;-52
2022/06/29 08:28:37;;;;;;;;;;;;;;;;;;5087617;28;20410;-52
2022/06/29 08:31:03;;;;;;;;;;;;;;;;;;5090202;28;19908;-53
2022/06/29 08:33:29;;;;;;;;;;;;;;;;;;5089832;28;19912;-51
2022/06/29 08:35:55;;;;;;;;;;;;;;;;;;5090062;28;20023;-50
2022/06/29 08:38:21;;;;;;;;;;;;;;;;;;5080787;28;19919;-50
2022/06/29 08:40:47;;;;;;;;;;;;;;;;;;5074647;28;19927;-53
2022/06/29 08:43:13;;;;;;;;;;;;;;;;;;5069693;28;19912;-50
2022/06/29 08:45:39;;;;;;;;;;;;;;;;;;5067866;28;19912;-52
2022/06/29 08:48:05;;;;;;;;;;;;;;;;;;5089771;28;19916;-51
2022/06/29 08:50:31;;;;;;;;;;;;;;;;;;5088480;28;19908;-53
2022/06/29 08:52:57;;;;;;;;;;;;;;;;;;5089524;28;19916;-52
2022/06/29 08:55:23;;;;;;;;;;;;;;;;;;5089939;28;19908;-50
2022/06/29 08:57:49;;;;;;;;;;;;;;;;;;5087338;28;20323;-49
2022/06/29 09:00:15;;;;;;;;;;;;;;;;;;5088496;28;19908;-51
2022/06/29 09:02:41;;;;;;;;;;;;;;;;;;5087863;28;20742;-51
2022/06/29 09:05:07;;;;;;;;;;;;;;;;;;5088027;28;19923;-51
2022/06/29 09:07:33;;;;;;;;;;;;;;;;;;5088173;28;20337;-49
2022/06/29 09:09:59;;;;;;;;;;;;;;;;;;5087932;28;20007;-52
2022/06/29 09:12:25;;;;;;;;;;;;;;;;;;5086645;28;19908;-51
2022/06/29 09:14:51;;;;;;;;;;;;;;;;;;5087615;28;19918;-50
2022/06/29 09:17:17;;;;;;;;;;;;;;;;;;5088217;28;19948;-51
2022/06/29 09:19:43;;;;;;;;;;;;;;;;;;5088001;28;20383;-50
2022/06/29 09:22:09;;;;;;;;;;;;;;;;;;5087655;28;19999;-49
2022/06/29 09:24:35;;;;;;;;;;;;;;;;;;5087942;28;19919;-50
2022/06/29 09:27:02;;;;;;;;;;;;;;;;;;5087442;28;19912;-50
2022/06/29 09:29:29;;;;;;;;;;;;;;;;;;5087468;28;19908;-50
2022/06/29 09:31:56;;;;;;;;;;;;;;;;;;5087663;28;19916;-50
2022/06/29 09:34:22;;;;;;;;;;;;;;;;;;5087515;28;20306;-53
2022/06/29 09:36:48;;;;;;;;;;;;;;;;;;5087368;28;19908;-49
2022/06/29 09:39:14;;;;;;;;;;;;;;;;;;5087824;28;19912;-53
2022/06/29 09:41:40;;;;;;;;;;;;;;;;;;5087033;28;20484;-49
2022/06/29 09:44:06;;;;;;;;;;;;;;;;;;5087212;28;19944;-51
2022/06/29 09:46:32;;;;;;;;;;;;;;;;;;5086987;28;20306;-50
2022/06/29 09:48:58;;;;;;;;;;;;;;;;;;5086218;28;19987;-51
2022/06/29 09:51:30;;;;;;;;;;;;;;;;;;5087352;28;20011;-51
2022/06/29 09:53:56;;;;;;;;;;;;;;;;;;5087499;28;20162;-50
2022/06/29 09:56:22;;;;;;;;;;;;;;;;;;5087227;28;19943;-50
2022/06/29 09:58:48;;;;;;;;;;;;;;;;;;5085182;28;19912;-50
2022/06/29 10:04:00;;;;;;;;;;;;;;;;;;5087094;28;20034;-52
2022/06/29 10:06:26;;;;;;;;;;;;;;;;;;5087068;28;19908;-49
2022/06/29 10:08:52;;;;;;;;;;;;;;;;;;5087360;28;19925;-50
2022/06/29 10:14:02;;;;;;;;;;;;;;;;;;5086612;28;19919;-52
2022/06/29 10:16:29;;;;;;;;;;;;;;;;;;5087043;28;19908;-50
2022/06/29 10:18:55;;;;;;;;;;;;;;;;;;5086809;28;19920;-52
2022/06/29 10:21:21;;;;;;;;;;;;;;;;;;5086916;28;19915;-52
2022/06/29 10:23:47;;;;;;;;;;;;;;;;;;5086613;28;20502;-52
2022/06/29 10:26:12;;;;;;;;;;;;;;;;;;5087099;28;19957;-52
2022/06/29 10:28:39;;;;;;;;;;;;;;;;;;5086582;28;20379;-51
2022/06/29 10:31:05;;;;;;;;;;;;;;;;;;5086850;28;20398;-52
2022/06/29 10:33:33;;;;;;;;;;;;;;;;;;5086370;28;19990;-50
2022/06/29 10:36:05;;;;;;;;;;;;;;;;;;5084671;28;20200;-54
2022/06/29 10:38:31;;;;;;;;;;;;;;;;;;5065559;28;19960;-50
2022/06/29 10:40:57;;;;;;;;;;;;;;;;;;5066636;28;19920;-50
2022/06/29 10:43:23;;;;;;;;;;;;;;;;;;5069417;28;19920;-51
2022/06/29 10:45:49;;;;;;;;;;;;;;;;;;5066674;28;20303;-53
2022/06/29 10:48:15;;;;;;;;;;;;;;;;;;5082565;28;19917;-53
2022/06/29 10:50:41;;;;;;;;;;;;;;;;;;5064799;28;19913;-53
2022/06/29 10:53:07;;;;;;;;;;;;;;;;;;5077816;28;19924;-54
2022/06/29 10:55:33;;;;;;;;;;;;;;;;;;5076516;28;20406;-56
2022/06/29 10:58:01;;;;;;;;;;;;;;;;;;5070363;28;19916;-55
2022/06/29 11:00:27;;;;;;;;;;;;;;;;;;5066500;28;19916;-55
2022/06/29 11:02:53;;;;;;;;;;;;;;;;;;5066314;28;19908;-53
2022/06/29 11:05:19;;;;;;;;;;;;;;;;;;5066384;28;19934;-54
2022/06/29 11:12:01;;;;;;;;;;;;;;;;;;5066877;28;19919;-54
2022/06/29 11:13:24;;;;;;;;;;;;;;;;;;5067822;28;19913;-54
2022/06/29 11:15:50;;;;;;;;;;;;;;;;;;5067136;28;20378;-54
2022/06/29 11:18:16;;;;;;;;;;;;;;;;;;5069539;28;20454;-55
2022/06/29 11:20:42;;;;;;;;;;;;;;;;;;5071201;28;19919;-55
2022/06/29 11:23:10;;;;;;;;;;;;;;;;;;5071048;28;20279;-55
2022/06/29 11:25:37;;;;;;;;;;;;;;;;;;5070931;28;19995;-55
2022/06/29 11:28:03;;;;;;;;;;;;;;;;;;5070326;28;19916;-54
2022/06/29 11:30:29;;;;;;;;;;;;;;;;;;5070851;28;19917;-54
2022/06/29 11:32:55;;;;;;;;;;;;;;;;;;5071370;28;20398;-56
2022/06/29 11:35:24;;;;;;;;;;;;;;;;;;5071224;28;19943;-55
2022/06/29 11:37:50;;;;;;;;;;;;;;;;;;5070601;28;20429;-55
2022/06/29 11:40:15;;;;;;;;;;;;;;;;;;5070576;28;20372;-56
2022/06/29 11:45:26;;;;;;;;;;;;;;;;;;5069607;28;20366;-57
2022/06/29 11:47:52;;;;;;;;;;;;;;;;;;5069249;28;19908;-57
2022/06/29 11:50:18;;;;;;;;;;;;;;;;;;5069774;28;19912;-54
2022/06/29 11:52:43;;;;;;;;;;;;;;;;;;5069050;28;19912;-57
2022/06/29 11:55:10;;;;;;;;;;;;;;;;;;5068531;28;20398;-56
2022/06/29 11:57:36;;;;;;;;;;;;;;;;;;5063573;28;20408;-57
2022/06/29 12:00:02;;;;;;;;;;;;;;;;;;5061430;28;20351;-55
2022/06/29 12:02:28;;;;;;;;;;;;;;;;;;5050295;28;19912;-55
2022/06/29 12:04:54;;;;;;;;;;;;;;;;;;5050122;28;20406;-55
2022/06/29 12:07:21;;;;;;;;;;;;;;;;;;5056135;28;20659;-54
2022/06/29 12:09:50;;;;;;;;;;;;;;;;;;5067843;28;19927;-55
2022/06/29 12:12:17;;;;;;;;;;;;;;;;;;5060051;28;20383;-55
2022/06/29 12:14:43;;;;;;;;;;;;;;;;;;5067387;28;19917;-56
2022/06/29 12:17:13;;;;;;;;;;;;;;;;;;5068210;28;19940;-55
2022/06/29 12:19:39;;;;;;;;;;;;;;;;;;5067864;28;19927;-55
2022/06/29 12:22:04;;;;;;;;;;;;;;;;;;5068795;28;19904;-56
2022/06/29 12:24:30;;;;;;;;;;;;;;;;;;5068424;28;19952;-56
2022/06/29 12:26:57;;;;;;;;;;;;;;;;;;5068562;28;19919;-56
2022/06/29 12:29:23;;;;;;;;;;;;;;;;;;5068170;28;19913;-57
2022/06/29 12:31:49;;;;;;;;;;;;;;;;;;5068446;28;19938;-56
2022/06/29 12:34:15;;;;;;;;;;;;;;;;;;5068189;28;19912;-57
2022/06/29 12:36:41;;;;;;;;;;;;;;;;;;5068241;28;19931;-56
2022/06/29 12:39:07;;;;;;;;;;;;;;;;;;5068359;28;19916;-56
2022/06/29 12:41:33;;;;;;;;;;;;;;;;;;5068065;28;20475;-56
2022/06/29 12:44:05;;;;;;;;;;;;;;;;;;5068533;28;19916;-56
2022/06/29 12:46:30;;;;;;;;;;;;;;;;;;5067810;28;19908;-56
2022/06/29 12:48:56;;;;;;;;;;;;;;;;;;5068434;28;19912;-57
2022/06/29 12:51:22;;;;;;;;;;;;;;;;;;5068242;28;20003;-57
2022/06/29 12:53:48;;;;;;;;;;;;;;;;;;5067825;28;19912;-56
2022/06/29 12:56:14;;;;;;;;;;;;;;;;;;5067654;28;19912;-57
2022/06/29 12:58:40;;;;;;;0.43;0.43;;;;;;;;;;5050051;28;20405;-54
2022/06/29 13:01:06;;;;;;;0.52;0.52;;;;;;;;;;5047873;28;20039;-54
2022/06/29 13:03:33;;;;;;;1.17;0.40;;;;;;;;;;5047034;28;20045;-54
2022/06/29 13:06:00;;;;;;;0.35;0.35;;;;;;;;;;5047775;28;20518;-54
2022/06/29 13:08:27;;;;;;;0.50;0.50;;;;;;;;;;5047778;28;20048;-54
2022/06/29 13:10:53;;;;;;;0.68;0.50;;;;;;;;;;5047310;28;20421;-55
2022/06/29 13:13:20;;;;;;;0.50;0.50;;;;;;;;;;5047006;28;20033;-56
2022/06/29 13:15:47;;;;;;;0.47;0.40;;;;;;;;;;5047033;28;20237;-55
2022/06/29 13:18:15;;;;;;;0.40;0.40;;;;;;;;;;5047005;28;20039;-54
2022/06/29 13:20:41;;;;;;;3.00;0.40;;;;;;;;;;5047092;28;20100;-55
2022/06/29 13:23:07;;;;;;;0.57;0.57;;;;;;;;;;5046860;28;20112;-55
2022/06/29 13:25:34;;;;;;;0.38;0.30;;;;;;;;;;5046944;28;20064;-55
2022/06/29 13:28:00;;;;;;;0.63;0.60;;;;;;;;;;5047257;28;20035;-55
2022/06/29 13:30:26;;;;;;;0.32;0.32;;;;;;;;;;5047105;28;20052;-55
2022/06/29 13:32:52;;;;;;;0.60;0.60;;;;;;;;;;5047080;28;20025;-56
2022/06/29 13:35:19;;;;;;;0.50;0.50;;;;;;;;;;5046952;28;20025;-54
2022/06/29 13:37:45;;;;;;;0.68;0.50;;;;;;;;;;5046699;28;20422;-55
2022/06/29 13:40:11;;;;;;;0.38;0.38;;;;;;;;;;5046030;28;20492;-55
2022/06/29 13:42:37;;;;;;;1.10;0.60;;;;;;;;;;5046637;28;20508;-55
2022/06/29 13:45:03;;;;;;;0.60;0.60;;;;;;;;;;5046661;28;20032;-56
2022/06/29 13:47:29;;;;;;;0.82;0.52;;;;;;;;;;5047105;28;20037;-56
2022/06/29 13:49:55;;;;;;;0.55;0.55;;;;;;;;;;5046983;28;20099;-54
2022/06/29 13:52:22;;;;;;;0.50;0.50;;;;;;;;;;5046747;28;20068;-55
2022/06/29 13:54:48;;;;;;;0.50;0.50;;;;;;;;;;5046015;28;20035;-55
2022/06/29 13:57:15;;;;;;;0.50;0.50;;;;;;;;;;5046391;28;20033;-55
2022/06/29 13:59:43;;;;;;;2.28;0.70;;;;;;;;;;5045941;28;20307;-55
2022/06/29 14:02:09;;;;;;;0.68;0.40;;;;;;;;;;5046468;28;20079;-55
2022/06/29 14:04:35;;;;;;;0.40;0.40;;;;;;;;;;5046056;28;20102;-56
2022/06/29 14:07:01;;;;;;;0.40;0.40;;;;;;;;;;5046363;28;20020;-56
2022/06/29 14:09:27;;;;;;;0.43;0.43;;;;;;;;;;5046309;28;20533;-55
2022/06/29 14:11:53;;;;;;;0.52;0.50;;;;;;;;;;5046323;28;20115;-54
2022/06/29 14:14:19;;;;;;;0.40;0.40;;;;;;;;;;5046542;28;20119;-54
2022/06/29 14:16:45;;;;;;;0.40;0.40;;;;;;;;;;5046151;28;20029;-55
2022/06/29 14:19:11;;;;;;;0.50;0.50;;;;;;;;;;5046258;28;20017;-56
2022/06/29 14:21:37;;;;;;;0.40;0.40;;;;;;;;;;5046007;28;20102;-54
2022/06/29 14:24:03;;;;;;;0.40;0.40;;;;;;;;;;5046114;28;20025;-56
2022/06/29 14:26:29;;;;;;;0.35;0.35;;;;;;;;;;5046280;28;20037;-55
2022/06/29 14:28:56;;;;;;;0.75;0.57;;;;;;;;;;5046463;28;20025;-55
2022/06/29 14:31:22;;;;;;;0.50;0.50;;;;;;;;;;5046316;28;20032;-55
2022/06/29 14:33:49;;;;;;;0.40;0.40;;;;;;;;;;5046012;28;20079;-55
2022/06/29 14:36:16;;;;;;;0.70;0.50;;;;;;;;;;5046255;28;20033;-55
2022/06/29 14:38:42;;;;;;;1.70;0.40;;;;;;;;;;5045651;28;20036;-56
2022/06/29 14:41:09;;;;;;;0.50;0.50;;;;;;;;;;5046191;28;20025;-55
2022/06/29 14:43:35;;;;;;;0.47;0.47;;;;;;;;;;5045973;28;20105;-55
2022/06/29 14:46:01;;;;;;;0.68;0.47;;;;;;;;;;5046063;28;20052;-56
2022/06/29 14:48:27;;;;;;;0.47;0.47;;;;;;;;;;5046190;28;20021;-56
2022/06/29 14:50:54;;;;;;;0.45;0.40;;;;;;;;;;5046370;28;20036;-55
2022/06/29 14:53:21;;;;;;;0.47;0.47;;;;;;;;;;5049504;28;20036;-55
2022/06/29 14:55:47;;;;;;;0.60;0.50;;;;;;;;;;5049772;28;20516;-56
2022/06/29 14:58:13;;;;;;;0.40;0.40;;;;;;;;;;5049639;28;20025;-56
2022/06/29 15:00:39;;;;;;;0.50;0.50;;;;;;;;;;5048171;28;20017;-55
2022/06/29 15:03:07;;;;;;;0.50;0.50;;;;;;;;;;5049671;28;20029;-57
2022/06/29 15:05:33;;;;;;;0.40;0.40;;;;;;;;;;5049658;28;20395;-57
2022/06/29 15:08:00;;;;;;;0.52;0.50;;;;;;;;;;5050074;28;20025;-56
2022/06/29 15:10:30;;;;;;;0.43;0.40;;;;;;;;;;5049832;28;20104;-56
2022/06/29 15:12:56;;;;;;;0.50;0.50;;;;;;;;;;5049928;28;20029;-56
2022/06/29 15:15:22;;;;;;;0.60;0.40;;;;;;;;;;5049424;28;20021;-57
2022/06/29 15:17:48;;;;;;;0.35;0.30;;;;;;;;;;5049182;28;20029;-57
2022/06/29 15:20:14;;;;;;;0.60;0.50;;;;;;;;;;5049544;28;20555;-56
2022/06/29 15:22:41;;;;;;;1.15;0.70;;;;;;;;;;5048946;28;20082;-56
2022/06/29 15:25:08;;;;;;;0.50;0.50;;;;;;;;;;5049001;28;20381;-57
2022/06/29 15:27:34;;;;;;;0.88;0.50;;;;;;;;;;5049298;28;20029;-56
2022/06/29 15:30:00;;;;;;;0.52;0.50;;;;;;;;;;5048130;28;20466;-57
2022/06/29 15:32:27;;;;;;;0.52;0.40;;;;;;;;;;5049532;28;20119;-56
2022/06/29 15:40:23;;;;;;;0.55;0.50;;;;;;;;;;5048639;28;20074;-56
2022/06/29 15:42:50;;;;;;;0.35;0.35;;;;;;;;;;5048740;28;20544;-56
2022/06/29 15:45:16;;;;;;;0.40;0.40;;;;;;;;;;5048747;28;20172;-56
2022/06/29 15:47:42;;;;;;;0.50;0.50;;;;;;;;;;5047444;28;20476;-56
2022/06/29 15:50:08;;;;;;;0.85;0.50;;;;;;;;;;5048763;28;20025;-56
2022/06/29 15:52:34;;;;;;;0.43;0.43;;;;;;;;;;5048929;28;20090;-57
2022/06/29 15:57:45;;;;;;;0.50;0.50;;;;;;;;;;5048573;28;20251;-56
2022/06/29 16:00:16;;;;;;;0.50;0.50;;;;;;;;;;5048766;28;20193;-56
2022/06/29 16:02:42;;;;;;;0.50;0.50;;;;;;;;;;5048134;28;20156;-56
2022/06/29 16:05:08;;;;;;;0.40;0.40;;;;;;;;;;5048424;28;20029;-57
2022/06/29 16:07:35;;;;;;;0.40;0.40;;;;;;;;;;5048588;28;20083;-56
2022/06/29 16:10:01;;;;;;;0.40;0.40;;;;;;;;;;5048598;28;20458;-56
2022/06/29 16:12:27;;;;;;;0.50;0.50;;;;;;;;;;5048402;28;20091;-56
2022/06/29 16:14:53;;;;;;;0.40;0.40;;;;;;;;;;5048784;28;20025;-56
2022/06/29 16:17:21;;;;;;;0.52;0.50;;;;;;;;;;5048756;28;20080;-56
2022/06/29 16:19:47;;;;;;;0.32;0.32;;;;;;;;;;5047949;28;20563;-57
2022/06/29 16:22:15;;;;;;;0.57;0.45;;;;;;;;;;5048086;28;20576;-57
2022/06/29 16:24:41;;;;;;;0.68;0.60;;;;;;;;;;5048044;28;20128;-57
2022/06/29 16:27:08;;;;;;;0.60;0.40;;;;;;;;;;5048434;28;20025;-57
2022/06/29 16:29:35;;;;;;;0.40;0.40;;;;;;;;;;5048708;28;20025;-56
2022/06/29 16:32:01;;;;;;;0.30;0.30;;;;;;;;;;5048360;28;20056;-56